Time;durP1;ratioP1;P1;durP2;ratioP2;P2;SDS_P1;SDS_P2;PMS_P1;PMS_P2;Temp;Humidity;BMP_temperature;BMP_pressure;BME280_temperature;BME280_humidity;BME280_pressure;Samples;Min_cycle;Max_cycle;Signal;HPM_P1;HPM_P2
2024/03/16 00:00:43;;;;;;;105.53;11.68;;;;;;;;;;5050974;28;20127;-76
2024/03/16 00:03:09;;;;;;;92.70;11.32;;;;;;;;;;5050816;28;20041;-76
2024/03/16 00:05:37;;;;;;;103.07;11.82;;;;;;;;;;5033546;28;20045;-76
2024/03/16 00:08:05;;;;;;;91.63;10.98;;;;;;;;;;5050557;28;20471;-76
2024/03/16 00:10:31;;;;;;;90.25;11.15;;;;;;;;;;5051488;28;20041;-76
2024/03/16 00:12:58;;;;;;;102.55;12.00;;;;;;;;;;5053053;28;20037;-75
2024/03/16 00:15:26;;;;;;;87.72;9.95;;;;;;;;;;5052233;28;20467;-75
2024/03/16 00:17:53;;;;;;;103.60;10.77;;;;;;;;;;5053094;28;20037;-75
2024/03/16 00:20:20;;;;;;;91.03;9.55;;;;;;;;;;5032589;28;20037;-76
2024/03/16 00:22:47;;;;;;;103.45;11.40;;;;;;;;;;5033163;28;20424;-76
2024/03/16 00:25:14;;;;;;;96.68;11.43;;;;;;;;;;5035685;28;20476;-75
2024/03/16 00:27:41;;;;;;;89.18;10.35;;;;;;;;;;5050797;28;20057;-76
2024/03/16 00:30:10;;;;;;;105.57;11.75;;;;;;;;;;5050347;28;20057;-75
2024/03/16 00:32:39;;;;;;;91.90;11.43;;;;;;;;;;5051050;28;20052;-76
2024/03/16 00:35:06;;;;;;;109.57;11.70;;;;;;;;;;5050101;28;20045;-76
2024/03/16 00:37:33;;;;;;;118.68;12.40;;;;;;;;;;5050715;28;20055;-75
2024/03/16 00:40:00;;;;;;;94.50;10.77;;;;;;;;;;5051676;28;20045;-75
2024/03/16 00:42:27;;;;;;;97.25;10.88;;;;;;;;;;5052439;28;20049;-76
2024/03/16 00:44:53;;;;;;;94.63;11.63;;;;;;;;;;5052688;28;20369;-76
2024/03/16 00:47:20;;;;;;;106.47;11.63;;;;;;;;;;5051179;28;20045;-75
2024/03/16 00:49:47;;;;;;;108.38;11.00;;;;;;;;;;5052494;28;20103;-76
2024/03/16 00:52:14;;;;;;;123.85;13.25;;;;;;;;;;5052226;28;20099;-75
2024/03/16 00:54:41;;;;;;;110.82;12.05;;;;;;;;;;5052753;28;20045;-75
2024/03/16 00:57:08;;;;;;;105.18;10.68;;;;;;;;;;5052161;28;20124;-75
2024/03/16 00:59:35;;;;;;;102.13;10.55;;;;;;;;;;5052753;28;20041;-76
2024/03/16 01:02:03;;;;;;;80.05;10.40;;;;;;;;;;5052605;28;20052;-75
2024/03/16 01:04:32;;;;;;;103.68;11.20;;;;;;;;;;5052158;28;20091;-76
2024/03/16 01:07:00;;;;;;;;;;;;;;;;;;5053082;28;20119;-75
2024/03/16 01:09:27;;;;;;;89.43;10.52;;;;;;;;;;5052331;28;19920;-76
2024/03/16 01:11:53;;;;;;;99.72;10.52;;;;;;;;;;5052643;28;20061;-75
2024/03/16 01:14:20;;;;;;;98.85;10.88;;;;;;;;;;5051747;28;20033;-75
2024/03/16 01:16:47;;;;;;;99.57;11.13;;;;;;;;;;5052231;28;20468;-76
2024/03/16 01:19:13;;;;;;;110.40;11.38;;;;;;;;;;5062845;28;20037;-75
2024/03/16 01:21:40;;;;;;;108.57;12.52;;;;;;;;;;5072349;28;20119;-75
2024/03/16 01:24:07;;;;;;;102.20;12.00;;;;;;;;;;5071676;28;20056;-76
2024/03/16 01:26:34;;;;;;;104.57;12.70;;;;;;;;;;5072069;28;20127;-75
2024/03/16 01:29:03;;;;;;;106.88;13.15;;;;;;;;;;5054351;28;20045;-76
2024/03/16 01:31:30;;;;;;;104.43;12.82;;;;;;;;;;5071896;28;20055;-75
2024/03/16 01:33:57;;;;;;;88.78;13.05;;;;;;;;;;5072164;28;20041;-75
2024/03/16 01:36:23;;;;;;;96.78;13.20;;;;;;;;;;5072307;28;20037;-75
2024/03/16 01:38:50;;;;;;;98.68;13.45;;;;;;;;;;5075727;28;20040;-76
2024/03/16 01:41:17;;;;;;;98.03;12.90;;;;;;;;;;5075284;28;20090;-76
2024/03/16 01:43:50;;;;;;;113.47;13.35;;;;;;;;;;5075707;28;20052;-75
2024/03/16 01:46:17;;;;;;;99.00;14.02;;;;;;;;;;5058011;28;20051;-75
2024/03/16 01:48:44;;;;;;;100.70;14.57;;;;;;;;;;5057837;28;20485;-75
2024/03/16 01:51:12;;;;;;;109.68;14.18;;;;;;;;;;5075193;28;20037;-74
2024/03/16 01:53:38;;;;;;;118.95;15.30;;;;;;;;;;5075568;28;20036;-75
2024/03/16 01:56:05;;;;;;;104.20;15.18;;;;;;;;;;5074826;28;20044;-76
2024/03/16 01:58:43;;;;;;;112.40;16.50;;;;;;;;;;5075367;28;20052;-75
2024/03/16 02:01:09;;;;;;;115.13;14.80;;;;;;;;;;5058281;28;20040;-75
2024/03/16 02:03:36;;;;;;;108.47;16.35;;;;;;;;;;5075379;28;20040;-74
2024/03/16 02:06:03;;;;;;;105.80;14.82;;;;;;;;;;5075034;28;20044;-76
2024/03/16 02:08:30;;;;;;;98.15;14.40;;;;;;;;;;5075146;28;20471;-76
2024/03/16 02:10:57;;;;;;;110.45;15.68;;;;;;;;;;5075271;28;20051;-75
2024/03/16 02:13:24;;;;;;;106.53;14.68;;;;;;;;;;5074853;28;20048;-75
2024/03/16 02:15:51;;;;;;;102.35;13.77;;;;;;;;;;5075003;28;20124;-75
2024/03/16 02:18:17;;;;;;;104.35;14.40;;;;;;;;;;5074194;28;20486;-76
2024/03/16 02:20:44;;;;;;;115.40;12.32;;;;;;;;;;5075046;28;20036;-76
2024/03/16 02:23:11;;;;;;;91.95;12.35;;;;;;;;;;5074604;28;20143;-75
2024/03/16 02:25:38;;;;;;;105.57;14.20;;;;;;;;;;5074903;28;20048;-76
2024/03/16 02:28:04;;;;;;;97.70;13.70;;;;;;;;;;5074361;28;20473;-75
2024/03/16 02:30:31;;;;;;;103.45;12.63;;;;;;;;;;5074748;28;20051;-76
2024/03/16 02:32:58;;;;;;;111.85;13.57;;;;;;;;;;5074690;28;20075;-75
2024/03/16 02:35:26;;;;;;;118.57;14.10;;;;;;;;;;5074145;28;20068;-75
2024/03/16 02:37:53;;;;;;;101.75;13.50;;;;;;;;;;5074854;28;20041;-76
2024/03/16 02:40:20;;;;;;;107.95;14.60;;;;;;;;;;5074087;28;20040;-76
2024/03/16 02:42:47;;;;;;;127.50;14.23;;;;;;;;;;5074624;28;20032;-77
2024/03/16 02:45:14;;;;;;;106.28;13.60;;;;;;;;;;5074105;28;20037;-76
2024/03/16 02:47:42;;;;;;;125.00;14.43;;;;;;;;;;5073669;28;20490;-75
2024/03/16 02:50:10;;;;;;;105.40;15.88;;;;;;;;;;5073846;28;20045;-76
2024/03/16 02:52:37;;;;;;;126.13;15.50;;;;;;;;;;5074553;28;20047;-75
2024/03/16 02:55:05;;;;;;;121.68;15.32;;;;;;;;;;5074340;28;20044;-75
2024/03/16 02:57:32;;;;;;;108.03;15.10;;;;;;;;;;5073983;28;20357;-76
2024/03/16 02:59:59;;;;;;;134.57;14.90;;;;;;;;;;5074334;28;20369;-76
2024/03/16 03:02:28;;;;;;;114.57;12.82;;;;;;;;;;5073687;28;20040;-75
2024/03/16 03:04:54;;;;;;;119.72;14.95;;;;;;;;;;5074109;28;20124;-76
2024/03/16 03:07:21;;;;;;;114.18;15.02;;;;;;;;;;5073604;28;20048;-75
2024/03/16 03:09:48;;;;;;;97.97;12.30;;;;;;;;;;5074080;28;20391;-76
2024/03/16 03:12:15;;;;;;;101.80;12.40;;;;;;;;;;5073525;28;20049;-75
2024/03/16 03:14:41;;;;;;;103.25;13.02;;;;;;;;;;5056299;28;20059;-75
2024/03/16 03:17:08;;;;;;;100.25;11.73;;;;;;;;;;5073433;28;20385;-76
2024/03/16 03:19:35;;;;;;;112.00;13.77;;;;;;;;;;5073582;28;20037;-75
2024/03/16 03:22:02;;;;;;;100.88;12.98;;;;;;;;;;5074129;28;20043;-75
2024/03/16 03:24:28;;;;;;;105.28;11.82;;;;;;;;;;5073152;28;20037;-76
2024/03/16 03:26:55;;;;;;;96.18;11.65;;;;;;;;;;5073610;28;20047;-76
2024/03/16 03:29:22;;;;;;;107.68;10.65;;;;;;;;;;5073104;28;20055;-75
2024/03/16 03:31:48;;;;;;;101.35;12.13;;;;;;;;;;5073551;28;20091;-75
2024/03/16 03:34:15;;;;;;;92.82;11.77;;;;;;;;;;5072884;28;20525;-76
2024/03/16 03:36:44;;;;;;;114.60;11.98;;;;;;;;;;5073897;28;20040;-75
2024/03/16 03:39:14;;;;;;;98.38;12.25;;;;;;;;;;5073110;28;20036;-75
2024/03/16 03:41:41;;;;;;;113.10;13.07;;;;;;;;;;5073602;28;20046;-75
2024/03/16 03:44:35;;;;;;;92.57;11.45;;;;;;;;;;5072931;28;20487;-75
2024/03/16 03:46:57;;;;;;;81.57;9.98;;;;;;;;;;5072777;28;20046;-75
2024/03/16 03:49:29;;;;;;;102.65;12.48;;;;;;;;;;5072982;28;20168;-75
2024/03/16 03:51:59;;;;;;;103.18;12.15;;;;;;;;;;5073375;28;20048;-75
2024/03/16 03:54:31;;;;;;;102.97;13.02;;;;;;;;;;5073075;28;20044;-76
2024/03/16 03:56:58;;;;;;;103.65;12.88;;;;;;;;;;5073032;28;20045;-75
2024/03/16 03:59:25;;;;;;;114.93;13.02;;;;;;;;;;5072391;28;20052;-75
2024/03/16 04:01:52;;;;;;;110.78;13.55;;;;;;;;;;5055728;28;20048;-74
2024/03/16 04:04:18;;;;;;;122.93;13.65;;;;;;;;;;5072501;28;20077;-75
2024/03/16 04:06:46;;;;;;;90.22;12.15;;;;;;;;;;5073375;28;20048;-76
2024/03/16 04:09:14;;;;;;;105.72;12.30;;;;;;;;;;5072719;28;20123;-75
2024/03/16 04:11:41;;;;;;;114.53;13.73;;;;;;;;;;5072949;28;20040;-75
2024/03/16 04:14:08;;;;;;;116.45;13.38;;;;;;;;;;5072372;28;20086;-75
2024/03/16 04:16:34;;;;;;;134.07;14.88;;;;;;;;;;5072816;28;20045;-75
2024/03/16 04:19:01;;;;;;;126.75;16.13;;;;;;;;;;5072797;28;20467;-76
2024/03/16 04:21:28;;;;;;;126.60;15.02;;;;;;;;;;5054967;28;20054;-76
2024/03/16 04:23:55;;;;;;;148.25;14.70;;;;;;;;;;5073072;28;20074;-75
2024/03/16 04:26:23;;;;;;;123.75;14.13;;;;;;;;;;5054398;28;20060;-76
2024/03/16 04:28:49;;;;;;;131.27;14.55;;;;;;;;;;5073074;28;20037;-76
2024/03/16 04:31:17;;;;;;;156.10;13.57;;;;;;;;;;5072352;28;20033;-76
2024/03/16 04:33:44;;;;;;;135.13;12.85;;;;;;;;;;5072770;28;20066;-75
2024/03/16 04:36:12;;;;;;;197.02;14.27;;;;;;;;;;5072221;28;20060;-75
2024/03/16 04:38:39;;;;;;;172.32;13.43;;;;;;;;;;5072984;28;20041;-75
2024/03/16 04:41:06;;;;;;;129.40;11.35;;;;;;;;;;5072149;28;20060;-75
2024/03/16 04:43:33;;;;;;;154.38;12.55;;;;;;;;;;5072701;28;20041;-76
2024/03/16 04:46:00;;;;;;;168.82;13.68;;;;;;;;;;5072622;28;20479;-75
2024/03/16 04:48:27;;;;;;;204.20;11.73;;;;;;;;;;5072469;28;20127;-75
2024/03/16 04:50:55;;;;;;;160.93;12.82;;;;;;;;;;5072675;28;20036;-75
2024/03/16 04:53:22;;;;;;;135.88;13.57;;;;;;;;;;5072337;28;20048;-76
2024/03/16 04:55:51;;;;;;;152.30;12.63;;;;;;;;;;5072349;28;20058;-75
2024/03/16 04:58:18;;;;;;;177.88;14.10;;;;;;;;;;5054599;28;20043;-76
2024/03/16 05:00:44;;;;;;;189.68;14.43;;;;;;;;;;5072711;28;20028;-75
2024/03/16 05:03:12;;;;;;;202.98;12.57;;;;;;;;;;5071938;28;20082;-75
2024/03/16 05:05:39;;;;;;;176.95;13.95;;;;;;;;;;5072358;28;20123;-76
2024/03/16 05:08:07;;;;;;;240.60;13.68;;;;;;;;;;5071987;28;20041;-75
2024/03/16 05:10:33;;;;;;;166.00;12.20;;;;;;;;;;5072499;28;20362;-76
2024/03/16 05:13:00;;;;;;;116.47;11.15;;;;;;;;;;5075658;28;20127;-75
2024/03/16 05:15:27;;;;;;;122.70;11.13;;;;;;;;;;5075765;28;20048;-76
2024/03/16 05:17:54;;;;;;;160.48;11.98;;;;;;;;;;5076439;28;20048;-76
2024/03/16 05:20:21;;;;;;;198.45;12.00;;;;;;;;;;5075650;28;20105;-75
2024/03/16 05:22:48;;;;;;;172.30;12.68;;;;;;;;;;5076270;28;20049;-76
2024/03/16 05:25:15;;;;;;;214.77;12.00;;;;;;;;;;5075506;28;20374;-75
2024/03/16 05:27:43;;;;;;;183.02;12.05;;;;;;;;;;5075852;28;20040;-75
2024/03/16 05:30:11;;;;;;;153.48;11.00;;;;;;;;;;5057780;28;20037;-76
2024/03/16 05:32:38;;;;;;;164.57;11.38;;;;;;;;;;5076032;28;20086;-76
2024/03/16 05:35:07;;;;;;;154.25;10.80;;;;;;;;;;5075257;28;20056;-74
2024/03/16 05:37:35;;;;;;;113.13;9.80;;;;;;;;;;5075780;28;20395;-76
2024/03/16 05:40:03;;;;;;;146.23;10.93;;;;;;;;;;5075869;28;20056;-75
2024/03/16 05:42:30;;;;;;;122.93;9.75;;;;;;;;;;5075091;28;20054;-76
2024/03/16 05:44:59;;;;;;;103.10;11.10;;;;;;;;;;5075837;28;20045;-76
2024/03/16 05:47:26;;;;;;;124.88;10.43;;;;;;;;;;5075362;28;20363;-75
2024/03/16 05:49:53;;;;;;;86.68;9.70;;;;;;;;;;5075445;28;20037;-75
2024/03/16 05:52:20;;;;;;;90.13;9.55;;;;;;;;;;5075117;28;20039;-75
2024/03/16 05:54:47;;;;;;;99.82;10.40;;;;;;;;;;5075386;28;20048;-76
2024/03/16 05:57:14;;;;;;;125.38;9.65;;;;;;;;;;5057163;28;20037;-75
2024/03/16 05:59:40;;;;;;;138.48;10.98;;;;;;;;;;5075298;28;20382;-75
2024/03/16 06:02:07;;;;;;;117.40;9.27;;;;;;;;;;5075030;28;20037;-75
2024/03/16 06:04:35;;;;;;;132.98;10.05;;;;;;;;;;5075176;28;20046;-75
2024/03/16 06:07:02;;;;;;;125.70;11.00;;;;;;;;;;5075203;28;20040;-76
2024/03/16 06:09:29;;;;;;;131.98;9.50;;;;;;;;;;5075183;28;20044;-75
2024/03/16 06:11:55;;;;;;;105.88;10.45;;;;;;;;;;5075514;28;20098;-76
2024/03/16 06:14:22;;;;;;;102.57;9.63;;;;;;;;;;5074664;28;20040;-75
2024/03/16 06:16:49;;;;;;;111.30;9.80;;;;;;;;;;5074948;28;20131;-76
2024/03/16 06:19:16;;;;;;;117.32;9.93;;;;;;;;;;5074499;28;20044;-76
2024/03/16 06:21:43;;;;;;;115.72;9.15;;;;;;;;;;5074831;28;20102;-76
2024/03/16 06:24:10;;;;;;;122.50;8.98;;;;;;;;;;5074202;28;20098;-76
2024/03/16 06:26:38;;;;;;;143.65;11.02;;;;;;;;;;5074887;28;20040;-75
2024/03/16 06:29:05;;;;;;;143.20;11.40;;;;;;;;;;5074556;28;20041;-77
2024/03/16 06:31:34;;;;;;;151.90;11.23;;;;;;;;;;5074682;28;20093;-76
2024/03/16 06:34:07;;;;;;;97.10;9.57;;;;;;;;;;5074669;28;20032;-75
2024/03/16 06:36:35;;;;;;;123.35;11.35;;;;;;;;;;5074623;28;20102;-75
2024/03/16 06:39:10;;;;;;;90.35;10.70;;;;;;;;;;5074699;28;20046;-75
2024/03/16 06:41:37;;;;;;;119.18;10.63;;;;;;;;;;5074282;28;20475;-74
2024/03/16 06:44:04;;;;;;;205.15;12.57;;;;;;;;;;5074510;28;20048;-76
2024/03/16 06:46:31;;;;;;;123.05;11.85;;;;;;;;;;5074271;28;20037;-76
2024/03/16 06:49:04;;;;;;;160.30;13.65;;;;;;;;;;5074494;28;20068;-76
2024/03/16 06:51:33;;;;;;;121.72;11.05;;;;;;;;;;5074112;28;20070;-76
2024/03/16 06:54:00;;;;;;;129.10;11.70;;;;;;;;;;5074588;28;20056;-75
2024/03/16 06:56:27;;;;;;;124.68;11.13;;;;;;;;;;5055886;28;20064;-75
2024/03/16 06:58:53;;;;;;;191.25;12.50;;;;;;;;;;5074194;28;20043;-75
2024/03/16 07:01:20;;;;;;;211.18;13.57;;;;;;;;;;5073758;28;20043;-77
2024/03/16 07:03:47;;;;;;;171.75;13.00;;;;;;;;;;5074147;28;20101;-75
2024/03/16 07:06:14;;;;;;;156.25;12.75;;;;;;;;;;5073564;28;20386;-75
2024/03/16 07:08:41;;;;;;;158.82;12.43;;;;;;;;;;5074167;28;20040;-75
2024/03/16 07:11:07;;;;;;;136.00;12.05;;;;;;;;;;5073460;28;20155;-75
2024/03/16 07:13:35;;;;;;;130.93;12.13;;;;;;;;;;5074098;28;20445;-75
2024/03/16 07:16:02;;;;;;;149.93;12.00;;;;;;;;;;5073723;28;20041;-78
2024/03/16 07:18:29;;;;;;;168.82;12.15;;;;;;;;;;5073049;28;20119;-75
2024/03/16 07:20:58;;;;;;;155.25;12.05;;;;;;;;;;5073798;28;20071;-77
2024/03/16 07:23:25;;;;;;;167.05;13.10;;;;;;;;;;5073492;28;20048;-76
2024/03/16 07:25:52;;;;;;;199.98;14.55;;;;;;;;;;5073307;28;20098;-76
2024/03/16 07:28:19;;;;;;;160.75;13.35;;;;;;;;;;5064393;28;20044;-75
2024/03/16 07:30:45;;;;;;;109.97;12.05;;;;;;;;;;5070460;28;20040;-77
2024/03/16 07:33:13;;;;;;;141.43;11.52;;;;;;;;;;5071302;28;20418;-76
2024/03/16 07:35:41;;;;;;;171.98;13.80;;;;;;;;;;5071560;28;20044;-77
2024/03/16 07:38:08;;;;;;;180.82;13.50;;;;;;;;;;5053714;28;20131;-77
2024/03/16 07:40:34;;;;;;;154.50;14.02;;;;;;;;;;5072095;28;20037;-76
2024/03/16 07:43:02;;;;;;;198.32;16.60;;;;;;;;;;5054221;28;20044;-76
2024/03/16 07:45:28;;;;;;;166.15;15.35;;;;;;;;;;5071157;28;20040;-76
2024/03/16 07:47:55;;;;;;;184.60;15.50;;;;;;;;;;5079360;28;20079;-76
2024/03/16 07:50:22;;;;;;;156.80;15.00;;;;;;;;;;5079996;28;20372;-76
2024/03/16 07:52:49;;;;;;;146.82;15.00;;;;;;;;;;5081448;28;20040;-77
2024/03/16 07:55:16;;;;;;;168.57;16.70;;;;;;;;;;5074761;28;20475;-76
2024/03/16 07:57:43;;;;;;;126.22;16.35;;;;;;;;;;5082977;28;20127;-77
2024/03/16 08:00:10;;;;;;;139.80;19.02;;;;;;;;;;5079042;28;20128;-78
2024/03/16 08:02:38;;;;;;;147.23;18.77;;;;;;;;;;5071518;28;20045;-76
2024/03/16 08:05:05;;;;;;;138.13;17.63;;;;;;;;;;5071244;28;20037;-77
2024/03/16 08:07:32;;;;;;;137.20;17.50;;;;;;;;;;5054587;28;20044;-75
2024/03/16 08:10:01;;;;;;;132.63;17.17;;;;;;;;;;5078694;28;20040;-77
2024/03/16 08:12:29;;;;;;;117.32;16.75;;;;;;;;;;5084043;28;20131;-76
2024/03/16 08:14:59;;;;;;;107.63;14.65;;;;;;;;;;5071577;28;20091;-76
2024/03/16 08:17:26;;;;;;;120.28;15.95;;;;;;;;;;5073535;28;20043;-77
2024/03/16 08:19:56;;;;;;;107.60;14.70;;;;;;;;;;5079330;28;20048;-76
2024/03/16 08:22:23;;;;;;;102.00;14.07;;;;;;;;;;5081230;28;20029;-76
2024/03/16 08:24:50;;;;;;;105.93;14.32;;;;;;;;;;5073237;28;20036;-76
2024/03/16 08:27:17;;;;;;;91.07;13.23;;;;;;;;;;5070302;28;20450;-77
2024/03/16 08:29:44;;;;;;;103.47;12.57;;;;;;;;;;5063517;28;20467;-76
2024/03/16 08:32:12;;;;;;;96.78;13.35;;;;;;;;;;5052609;28;20045;-77
2024/03/16 08:34:39;;;;;;;103.68;13.18;;;;;;;;;;5071360;28;20052;-76
2024/03/16 08:37:06;;;;;;;98.68;13.18;;;;;;;;;;5064454;28;20047;-76
2024/03/16 08:39:33;;;;;;;101.22;11.80;;;;;;;;;;5070550;28;20041;-77
2024/03/16 08:42:00;;;;;;;93.75;13.32;;;;;;;;;;5065061;28;20043;-77
2024/03/16 08:44:28;;;;;;;88.00;12.10;;;;;;;;;;5070720;28;20120;-76
2024/03/16 08:46:55;;;;;;;91.28;12.73;;;;;;;;;;5056478;28;20384;-76
2024/03/16 08:49:23;;;;;;;83.35;11.65;;;;;;;;;;5076375;28;20132;-76
2024/03/16 08:51:49;;;;;;;87.20;11.80;;;;;;;;;;5053454;28;20431;-76
2024/03/16 08:54:16;;;;;;;84.13;10.95;;;;;;;;;;5079359;28;20127;-76
2024/03/16 08:56:43;;;;;;;75.35;10.93;;;;;;;;;;5075081;28;20043;-77
2024/03/16 08:59:10;;;;;;;76.05;9.82;;;;;;;;;;5074519;28;20049;-77
2024/03/16 09:01:38;;;;;;;87.28;10.48;;;;;;;;;;5073865;28;20048;-76
2024/03/16 09:04:06;;;;;;;;;;;;;;;;;;5074884;28;20091;-76
2024/03/16 09:06:33;;;;;;;79.88;9.50;;;;;;;;;;5072979;28;20325;-76
2024/03/16 09:09:00;;;;;;;70.40;8.77;;;;;;;;;;5072811;28;20059;-76
2024/03/16 09:11:27;;;;;;;66.10;8.23;;;;;;;;;;5072662;28;20064;-76
2024/03/16 09:13:54;;;;;;;69.35;8.63;;;;;;;;;;5073035;28;20419;-77
2024/03/16 09:16:20;;;;;;;64.72;8.10;;;;;;;;;;5072463;28;20110;-75
2024/03/16 09:18:47;;;;;;;65.63;8.68;;;;;;;;;;5072872;28;20456;-76
2024/03/16 09:21:14;;;;;;;63.83;8.70;;;;;;;;;;5073500;28;20045;-77
2024/03/16 09:23:41;;;;;;;60.90;8.10;;;;;;;;;;5074695;28;20409;-76
2024/03/16 09:26:07;;;;;;;64.78;8.85;;;;;;;;;;5073910;28;20487;-76
2024/03/16 09:28:34;;;;;;;70.00;9.55;;;;;;;;;;5074339;28;20028;-76
2024/03/16 09:31:04;;;;;;;70.72;7.50;;;;;;;;;;5074404;28;20545;-76
2024/03/16 09:33:32;;;;;;;52.45;7.63;;;;;;;;;;5074199;28;20062;-76
2024/03/16 09:35:59;;;;;;;58.72;8.70;;;;;;;;;;5074092;28;20060;-76
2024/03/16 09:38:26;;;;;;;54.63;7.57;;;;;;;;;;5055876;28;20049;-76
2024/03/16 09:40:55;;;;;;;49.55;7.50;;;;;;;;;;5074408;28;20039;-76
2024/03/16 09:43:23;;;;;;;62.92;9.73;;;;;;;;;;5073546;28;20479;-76
2024/03/16 09:45:49;;;;;;;58.92;7.90;;;;;;;;;;5056473;28;20044;-76
2024/03/16 09:48:15;;;;;;;54.58;8.05;;;;;;;;;;5055638;28;20044;-76
2024/03/16 09:50:44;;;;;;;35.47;6.50;;;;;;;;;;5056425;28;20119;-75
2024/03/16 09:53:32;;;;;;;47.47;7.03;;;;;;;;;;5055648;28;20047;-75
2024/03/16 09:56:04;;;;;;;42.67;6.05;;;;;;;;;;5056203;28;20063;-76
2024/03/16 09:58:31;;;;;;;49.75;6.07;;;;;;;;;;5055290;28;20053;-76
2024/03/16 10:01:00;;;;;;;47.65;6.90;;;;;;;;;;5055744;28;20043;-75
2024/03/16 10:03:26;;;;;;;44.97;7.68;;;;;;;;;;5055492;28;20498;-76
2024/03/16 10:05:52;;;;;;;52.20;7.25;;;;;;;;;;5055670;28;20394;-76
2024/03/16 10:08:19;;;;;;;48.28;6.22;;;;;;;;;;5055245;28;20044;-77
2024/03/16 10:10:44;;;;;;;43.95;7.18;;;;;;;;;;5055816;28;20487;-75
2024/03/16 10:13:11;;;;;;;38.75;5.93;;;;;;;;;;5055500;28;20052;-76
2024/03/16 10:15:46;;;;;;;39.95;6.10;;;;;;;;;;5055479;28;20043;-76
2024/03/16 10:18:14;;;;;;;47.00;6.93;;;;;;;;;;5054895;28;20086;-76
2024/03/16 10:20:42;;;;;;;45.05;6.18;;;;;;;;;;5039355;28;20075;-76
2024/03/16 10:23:16;;;;;;;45.17;6.15;;;;;;;;;;5055343;28;20552;-76
2024/03/16 10:25:48;;;;;;;39.90;6.82;;;;;;;;;;5038959;28;20497;-75
2024/03/16 10:28:18;;;;;;;46.13;6.03;;;;;;;;;;5032030;28;20048;-75
2024/03/16 10:30:46;;;;;;;35.20;5.90;;;;;;;;;;5055581;28;20497;-75
2024/03/16 10:33:12;;;;;;;45.17;6.68;;;;;;;;;;5054872;28;20364;-76
2024/03/16 10:35:42;;;;;;;34.20;5.40;;;;;;;;;;5055144;28;20610;-75
2024/03/16 10:38:16;;;;;;;33.80;5.32;;;;;;;;;;5054881;28;20049;-75
2024/03/16 10:40:43;;;;;;;36.83;5.88;;;;;;;;;;5055154;28;20041;-75
2024/03/16 10:43:17;;;;;;;35.00;5.45;;;;;;;;;;5053923;28;20044;-76
2024/03/16 10:45:47;;;;;;;37.45;5.72;;;;;;;;;;5053489;28;20048;-76
2024/03/16 10:48:14;;;;;;;34.00;5.30;;;;;;;;;;5038295;28;20390;-76
2024/03/16 10:50:46;;;;;;;36.08;5.43;;;;;;;;;;5056701;28;20044;-76
2024/03/16 10:53:13;;;;;;;27.25;4.70;;;;;;;;;;5055222;28;20032;-75
2024/03/16 10:55:40;;;;;;;31.60;4.47;;;;;;;;;;5056541;28;20033;-75
2024/03/16 10:58:19;;;;;;;23.20;5.47;;;;;;;;;;5056201;28;20033;-76
2024/03/16 11:00:47;;;;;;;33.92;4.50;;;;;;;;;;5056158;28;20360;-76
2024/03/16 11:03:25;;;;;;;29.45;5.53;;;;;;;;;;5055791;28;20375;-75
2024/03/16 11:05:54;;;;;;;36.47;4.60;;;;;;;;;;5056164;28;20040;-75
2024/03/16 11:08:23;;;;;;;24.45;3.92;;;;;;;;;;5055330;28;20045;-75
2024/03/16 11:10:49;;;;;;;28.65;5.18;;;;;;;;;;5055424;28;20043;-76
2024/03/16 11:13:16;;;;;;;24.90;4.47;;;;;;;;;;5055924;28;20418;-75
2024/03/16 11:15:44;;;;;;;25.35;4.53;;;;;;;;;;5055892;28;20494;-76
2024/03/16 11:18:15;;;;;;;31.00;5.25;;;;;;;;;;5055326;28;20360;-75
2024/03/16 11:20:48;;;;;;;20.45;3.97;;;;;;;;;;5055875;28;20044;-74
2024/03/16 11:23:28;;;;;;;22.10;3.78;;;;;;;;;;5055385;28;20375;-75
2024/03/16 11:25:56;;;;;;;23.83;4.25;;;;;;;;;;5064060;28;20125;-76
2024/03/16 11:28:23;;;;;;;25.45;4.13;;;;;;;;;;5063363;28;20448;-75
2024/03/16 11:30:52;;;;;;;24.17;4.05;;;;;;;;;;5059651;28;20045;-76
2024/03/16 11:33:22;;;;;;;24.70;4.32;;;;;;;;;;5041595;28;20086;-75
2024/03/16 11:35:50;;;;;;;21.92;3.92;;;;;;;;;;5044029;28;20059;-76
2024/03/16 11:38:16;;;;;;;24.42;4.35;;;;;;;;;;5045189;28;20044;-76
2024/03/16 11:40:48;;;;;;;21.42;3.33;;;;;;;;;;5048563;28;20391;-75
2024/03/16 11:43:14;;;;;;;26.17;3.72;;;;;;;;;;5045727;28;20040;-76
2024/03/16 11:45:49;;;;;;;20.42;3.38;;;;;;;;;;5051615;28;20040;-76
2024/03/16 11:48:16;;;;;;;16.67;3.45;;;;;;;;;;5048651;28;20044;-76
2024/03/16 11:50:43;;;;;;;20.73;3.22;;;;;;;;;;5028911;28;20045;-75
2024/03/16 11:53:10;;;;;;;20.10;3.55;;;;;;;;;;5045237;28;20300;-76
2024/03/16 11:55:39;;;;;;;21.90;3.72;;;;;;;;;;5029704;28;20044;-75
2024/03/16 11:58:05;;;;;;;20.38;3.92;;;;;;;;;;5056740;28;20039;-74
2024/03/16 12:00:32;;;;;;;20.90;3.83;;;;;;;;;;5061574;28;20047;-75
2024/03/16 12:03:05;;;;;;;26.83;3.67;;;;;;;;;;5053849;28;20039;-75
2024/03/16 12:05:34;;;;;;;23.98;4.88;;;;;;;;;;5058479;28;20128;-75
2024/03/16 12:08:00;;;;;;;;;;;;;;;;;;5053550;28;20378;-75
2024/03/16 12:10:26;;;;;;;18.25;3.28;;;;;;;;;;5059830;28;19920;-75
2024/03/16 12:12:52;;;;;;;20.25;3.50;;;;;;;;;;5066113;28;20036;-76
2024/03/16 12:15:22;;;;;;;16.83;3.10;;;;;;;;;;5068294;28;20360;-75
2024/03/16 12:17:48;;;;;;;18.45;2.75;;;;;;;;;;5045343;28;20044;-75
2024/03/16 12:20:19;;;;;;;20.35;3.50;;;;;;;;;;5053907;28;20032;-76
2024/03/16 12:22:53;;;;;;;19.52;3.70;;;;;;;;;;5056164;28;20041;-75
2024/03/16 12:25:25;;;;;;;20.80;3.40;;;;;;;;;;5037973;28;20041;-76
2024/03/16 12:27:54;;;;;;;21.75;3.88;;;;;;;;;;5055883;28;20045;-76
2024/03/16 12:30:21;;;;;;;16.90;3.30;;;;;;;;;;5054244;28;20041;-76
2024/03/16 12:32:47;;;;;;;19.35;3.53;;;;;;;;;;5054850;28;20048;-75
2024/03/16 12:35:13;;;;;;;15.05;3.42;;;;;;;;;;5054158;28;20487;-76
2024/03/16 12:37:39;;;;;;;15.85;3.33;;;;;;;;;;5037996;28;20045;-75
2024/03/16 12:40:06;;;;;;;20.92;3.40;;;;;;;;;;5057648;28;20032;-75
2024/03/16 12:42:35;;;;;;;15.98;4.05;;;;;;;;;;5073071;28;20532;-75
2024/03/16 12:45:01;;;;;;;18.60;3.10;;;;;;;;;;5067008;28;20048;-75
2024/03/16 12:47:27;;;;;;;22.30;3.83;;;;;;;;;;5054097;28;20040;-75
2024/03/16 12:49:56;;;;;;;16.73;2.83;;;;;;;;;;5039101;28;20045;-75
2024/03/16 12:52:23;;;;;;;20.67;4.30;;;;;;;;;;5018120;28;20040;-75
2024/03/16 12:54:55;;;;;;;20.25;3.85;;;;;;;;;;5020885;28;20475;-76
2024/03/16 12:57:20;;;;;;;21.05;3.70;;;;;;;;;;5045398;28;20047;-76
2024/03/16 12:59:46;;;;;;;21.48;3.40;;;;;;;;;;5048717;28;20032;-75
2024/03/16 13:02:12;;;;;;;19.13;3.75;;;;;;;;;;5054032;28;20047;-74
2024/03/16 13:04:37;;;;;;;21.83;3.92;;;;;;;;;;5056337;28;20090;-75
2024/03/16 13:07:03;;;;;;;19.08;3.10;;;;;;;;;;5061440;28;20381;-75
2024/03/16 13:09:33;;;;;;;12.85;3.35;;;;;;;;;;5060668;28;20040;-76
2024/03/16 13:11:59;;;;;;;18.85;3.58;;;;;;;;;;5058695;28;20097;-76
2024/03/16 13:14:24;;;;;;;26.65;3.38;;;;;;;;;;5057581;28;20421;-75
2024/03/16 13:16:50;;;;;;;25.73;3.58;;;;;;;;;;5044624;28;20045;-76
2024/03/16 13:19:16;;;;;;;20.27;3.33;;;;;;;;;;5051029;28;20079;-75
2024/03/16 13:21:46;;;;;;;20.60;3.45;;;;;;;;;;5037146;28;20037;-75
2024/03/16 13:24:12;;;;;;;17.77;3.55;;;;;;;;;;5059130;28;20040;-75
2024/03/16 13:26:38;;;;;;;23.98;3.30;;;;;;;;;;5052984;28;20050;-76
2024/03/16 13:29:04;;;;;;;19.77;3.83;;;;;;;;;;5052409;28;20705;-74
2024/03/16 13:31:32;;;;;;;17.52;2.95;;;;;;;;;;5054681;28;20041;-74
2024/03/16 13:33:58;;;;;;;17.08;3.70;;;;;;;;;;5055873;28;20051;-76
2024/03/16 13:36:28;;;;;;;18.45;3.75;;;;;;;;;;5041716;28;20440;-76
2024/03/16 13:38:54;;;;;;;18.27;3.30;;;;;;;;;;5057130;28;20063;-76
2024/03/16 13:41:20;;;;;;;20.73;4.10;;;;;;;;;;5055873;28;20052;-76
2024/03/16 13:43:46;;;;;;;16.52;3.25;;;;;;;;;;5051501;28;20044;-75
2024/03/16 13:46:20;;;;;;;19.95;3.40;;;;;;;;;;5055558;28;20045;-76
2024/03/16 13:48:56;;;;;;;19.90;3.30;;;;;;;;;;5056321;28;20039;-75
2024/03/16 13:51:26;;;;;;;18.10;3.10;;;;;;;;;;5046602;28;20479;-75
2024/03/16 13:54:01;;;;;;;21.42;3.92;;;;;;;;;;5048188;28;20049;-75
2024/03/16 13:56:28;;;;;;;19.52;4.10;;;;;;;;;;5051692;28;20398;-76
2024/03/16 13:58:56;;;;;;;19.30;4.57;;;;;;;;;;5054497;28;20041;-74
2024/03/16 14:01:24;;;;;;;22.23;4.82;;;;;;;;;;5050923;28;20391;-76
2024/03/16 14:03:57;;;;;;;18.87;5.00;;;;;;;;;;5052484;28;20040;-76
2024/03/16 14:06:25;;;;;;;22.77;4.88;;;;;;;;;;5060117;28;20379;-75
2024/03/16 14:08:51;;;;;;;23.33;4.80;;;;;;;;;;5055617;28;20089;-75
2024/03/16 14:11:17;;;;;;;16.83;4.00;;;;;;;;;;5054684;28;20051;-76
2024/03/16 14:13:43;;;;;;;20.70;4.25;;;;;;;;;;5063154;28;20040;-75
2024/03/16 14:16:09;;;;;;;22.25;3.80;;;;;;;;;;5038660;28;20036;-75
2024/03/16 14:18:35;;;;;;;23.60;4.30;;;;;;;;;;5051723;28;20041;-74